Polfoss — V2PN7 — position and weather

sailwx.info

Track history (hours):
 
Tides and Currents Weather Stations Pressure Air Temp Water Temp Dewpoint Dewpoint Depression Visibility Wind Speed Wind Dir Waves Ship Positions

Polfoss

Last reported at 2017-Jan-16 00:24 UTC. Time now 2017-Jan-16 19:28 UTC.
Position N 66°54' E 013°20'.

Length 82 m; draft 5.5 m.

Type: Cargo ship. MMSI: 305081000.

Date/timePositionNaut miles runAvg speedWind from/ knotsBaromVisibWave heightAir tempDewpointWater temp
2017-Jan-16 00:24N 66°54' E 013°20'1314.7
2017-Jan-15 23:33N 66°42' E 013°10'1413.7
2017-Jan-15 22:33N 66°29' E 012°59'1615.0
2017-Jan-15 21:28N 66°13' E 012°53'5513.5
2017-Jan-15 17:21N 65°21' E 012°03'1114.0
2017-Jan-15 16:33N 65°12' E 011°52'1413.9
2017-Jan-15 15:34N 64°59' E 011°36'1413.8
2017-Jan-15 14:33N 64°50' E 011°12'85 9.4
2017-Jan-15 05:33N 63°38' E 009°29'1111.2
2017-Jan-15 04:33N 63°33' E 009°52'1312.8
2017-Jan-15 03:33N 63°28' E 010°18'3 3.4
2017-Jan-15 02:33N 63°27' E 010°25'0 0.0
2017-Jan-15 01:34N 63°27' E 010°25'6 5.6
2017-Jan-15 00:33N 63°28' E 010°13'1413.5
2017-Jan-14 23:33N 63°36' E 009°48'1212.2
2017-Jan-14 22:32N 63°34' E 009°20'3415.1
2017-Jan-14 20:17N 63°17' E 008°13'1115.1
2017-Jan-14 19:33N 63°12' E 007°52'1414.2
2017-Jan-14 18:33N 63°05' E 007°26'1414.0
2017-Jan-14 17:31N 62°60' E 006°56'1313.1
2017-Jan-14 16:34N 62°50' E 006°39'177 5.5
2017-Jan-13 08:13N 59°56' E 005°29'1014.7
2017-Jan-13 07:32N 59°46' E 005°33'4113.5
2017-Jan-13 04:28N 59°05' E 005°21'1314.4
2017-Jan-13 03:33N 58°58' E 004°58'29810.6
2017-Jan-11 23:32N 54°48' E 000°02'9 9.2
2017-Jan-11 22:33N 54°40' E 000°05'1010.1
2017-Jan-11 21:34N 54°30' E 000°10'1010.2
2017-Jan-11 20:33N 54°20' E 000°15'1110.9
2017-Jan-11 19:33N 54°09' E 000°17'1111.0
2017-Jan-11 18:33N 53°58' E 000°20'26 8.7
2017-Jan-11 15:32N 53°35' W 000°00'2 2.5
2017-Jan-11 14:33N 53°35' W 000°04'0 0.0
2017-Jan-11 13:33N 53°35' W 000°04'0 0.0
2017-Jan-11 12:33N 53°35' W 000°04'0 0.0
2017-Jan-11 11:32N 53°35' W 000°04'0 0.0
2017-Jan-11 10:34N 53°35' W 000°04'0 0.0
2017-Jan-11 09:33N 53°35' W 000°04'0 0.0
2017-Jan-11 08:33N 53°35' W 000°04'0 0.0
2017-Jan-11 07:33N 53°35' W 000°04'0 0.0
2017-Jan-11 06:33N 53°35' W 000°04'0 0.0
2017-Jan-11 05:17N 53°35' W 000°04'0 0.0
2017-Jan-11 04:33N 53°35' W 000°04'0 0.0
2017-Jan-11 03:20N 53°35' W 000°04'0 0.0
2017-Jan-11 02:33N 53°35' W 000°04'0 0.0
2017-Jan-11 01:33N 53°35' W 000°04'0 0.0
2017-Jan-11 00:33N 53°35' W 000°04'0 0.0
2017-Jan-10 23:33N 53°35' W 000°04'0 0.0
2017-Jan-10 22:33N 53°35' W 000°04'0 0.0
2017-Jan-10 21:33N 53°35' W 000°04'0 0.0
2017-Jan-10 20:33N 53°35' W 000°04'0 0.0
2017-Jan-10 19:31N 53°35' W 000°04'0 0.0
2017-Jan-10 18:31N 53°35' W 000°04'0 0.0
2017-Jan-10 16:32N 53°35' W 000°04'0 0.0
2017-Jan-10 15:22N 53°35' W 000°04'3 3.7
2017-Jan-10 14:33N 53°35' E 000°01'5310.4
2017-Jan-10 09:29N 53°13' E 001°21'1011.2
2017-Jan-10 08:33N 53°10' E 001°37'1110.9
2017-Jan-10 07:33N 53°06' E 001°54'8012.8
2017-Jan-10 01:18N 52°31' E 003°54'1012.9
2017-Jan-10 00:33N 52°31' E 004°10'1313.1
2017-Jan-09 23:34N 52°28' E 004°31'3 3.4
2017-Jan-09 22:33N 52°28' E 004°36'2 2.1
2017-Jan-09 21:33N 52°28' E 004°40'0 0.0
2017-Jan-09 20:33N 52°28' E 004°40'0 0.0
2017-Jan-09 19:34N 52°28' E 004°40'0 0.0
2017-Jan-09 18:33N 52°28' E 004°40'0 0.0
2017-Jan-09 17:33N 52°28' E 004°40'0 0.0
2017-Jan-09 16:34N 52°28' E 004°40'0 0.0
2017-Jan-09 15:33N 52°28' E 004°40'0 0.0
2017-Jan-09 14:34N 52°28' E 004°40'0 0.0
2017-Jan-09 13:34N 52°28' E 004°40'0 0.0
2017-Jan-09 12:33N 52°28' E 004°40'0 0.0
2017-Jan-09 11:34N 52°28' E 004°40'0 0.0
2017-Jan-09 10:34N 52°28' E 004°40'0 0.0
2017-Jan-09 09:33N 52°28' E 004°40'0 0.0
2017-Jan-09 08:34N 52°28' E 004°40'0 0.0
2017-Jan-09 07:34N 52°28' E 004°40'0 0.0
2017-Jan-09 06:34N 52°28' E 004°40'0 0.0
2017-Jan-09 05:33N 52°28' E 004°40'0 0.0
2017-Jan-09 04:34N 52°28' E 004°40'0 0.0
2017-Jan-09 03:34N 52°28' E 004°40'0 0.0
2017-Jan-09 02:34N 52°28' E 004°40'0 0.0
2017-Jan-09 01:33N 52°28' E 004°40'0 0.0
2017-Jan-09 00:33N 52°28' E 004°40'0 0.0
2017-Jan-08 23:34N 52°28' E 004°40'0 0.0
2017-Jan-08 22:33N 52°28' E 004°40'0 0.0
2017-Jan-08 21:34N 52°28' E 004°40'0 0.0
2017-Jan-08 20:33N 52°28' E 004°40'0 0.0
2017-Jan-08 19:33N 52°28' E 004°40'3 2.5
2017-Jan-08 18:34N 52°28' E 004°36'10 9.6
2017-Jan-08 17:34N 52°37' E 004°30'1515.4
2017-Jan-08 16:34N 52°52' E 004°29'1514.7
2017-Jan-08 15:33N 53°07' E 004°33'4413.3
2017-Jan-08 12:13N 53°50' E 004°48'1014.3
2017-Jan-08 11:33N 53°59' E 004°54'26314.6
2017-Jan-07 17:27N 58°22' E 005°16'1314.0
2017-Jan-07 16:33N 58°35' E 005°17'1413.9
2017-Jan-07 15:34N 58°49' E 005°18'1413.8
2017-Jan-07 14:34N 59°02' E 005°19'28 6.4
2017-Jan-07 10:08N 59°30' E 005°12'1214.3
2017-Jan-07 09:19N 59°41' E 005°23'1113.7
2017-Jan-07 08:29N 59°51' E 005°33'  
Track history (hours):
 
Tides and Currents Weather Stations Pressure Air Temp Water Temp Dewpoint Dewpoint Depression Visibility Wind Speed Wind Dir Waves Ship Positions

Polfoss

Last reported at 2017-Jan-16 00:24 UTC. Time now 2017-Jan-16 19:28 UTC.
Position N 66°54' E 013°20'.

Length 82 m; draft 5.5 m.

Type: Cargo ship. MMSI: 305081000.

Date/timePositionNaut miles runAvg speedWind from/ knotsBaromVisibWave heightAir tempDewpointWater temp
2017-Jan-16 00:24N 66°54' E 013°20'1314.7
2017-Jan-15 23:33N 66°42' E 013°10'1413.7
2017-Jan-15 22:33N 66°29' E 012°59'1615.0
2017-Jan-15 21:28N 66°13' E 012°53'5513.5
2017-Jan-15 17:21N 65°21' E 012°03'1114.0
2017-Jan-15 16:33N 65°12' E 011°52'1413.9
2017-Jan-15 15:34N 64°59' E 011°36'1413.8
2017-Jan-15 14:33N 64°50' E 011°12'85 9.4
2017-Jan-15 05:33N 63°38' E 009°29'1111.2
2017-Jan-15 04:33N 63°33' E 009°52'1312.8
2017-Jan-15 03:33N 63°28' E 010°18'3 3.4
2017-Jan-15 02:33N 63°27' E 010°25'0 0.0
2017-Jan-15 01:34N 63°27' E 010°25'6 5.6
2017-Jan-15 00:33N 63°28' E 010°13'1413.5
2017-Jan-14 23:33N 63°36' E 009°48'1212.2
2017-Jan-14 22:32N 63°34' E 009°20'3415.1
2017-Jan-14 20:17N 63°17' E 008°13'1115.1
2017-Jan-14 19:33N 63°12' E 007°52'1414.2
2017-Jan-14 18:33N 63°05' E 007°26'1414.0
2017-Jan-14 17:31N 62°60' E 006°56'1313.1
2017-Jan-14 16:34N 62°50' E 006°39'177 5.5
2017-Jan-13 08:13N 59°56' E 005°29'1014.7
2017-Jan-13 07:32N 59°46' E 005°33'4113.5
2017-Jan-13 04:28N 59°05' E 005°21'1314.4
2017-Jan-13 03:33N 58°58' E 004°58'29810.6
2017-Jan-11 23:32N 54°48' E 000°02'9 9.2
2017-Jan-11 22:33N 54°40' E 000°05'1010.1
2017-Jan-11 21:34N 54°30' E 000°10'1010.2
2017-Jan-11 20:33N 54°20' E 000°15'1110.9
2017-Jan-11 19:33N 54°09' E 000°17'1111.0
2017-Jan-11 18:33N 53°58' E 000°20'26 8.7
2017-Jan-11 15:32N 53°35' W 000°00'2 2.5
2017-Jan-11 14:33N 53°35' W 000°04'0 0.0
2017-Jan-11 13:33N 53°35' W 000°04'0 0.0
2017-Jan-11 12:33N 53°35' W 000°04'0 0.0
2017-Jan-11 11:32N 53°35' W 000°04'0 0.0
2017-Jan-11 10:34N 53°35' W 000°04'0 0.0
2017-Jan-11 09:33N 53°35' W 000°04'0 0.0
2017-Jan-11 08:33N 53°35' W 000°04'0 0.0
2017-Jan-11 07:33N 53°35' W 000°04'0 0.0
2017-Jan-11 06:33N 53°35' W 000°04'0 0.0
2017-Jan-11 05:17N 53°35' W 000°04'0 0.0
2017-Jan-11 04:33N 53°35' W 000°04'0 0.0
2017-Jan-11 03:20N 53°35' W 000°04'0 0.0
2017-Jan-11 02:33N 53°35' W 000°04'0 0.0
2017-Jan-11 01:33N 53°35' W 000°04'0 0.0
2017-Jan-11 00:33N 53°35' W 000°04'0 0.0
2017-Jan-10 23:33N 53°35' W 000°04'0 0.0
2017-Jan-10 22:33N 53°35' W 000°04'0 0.0
2017-Jan-10 21:33N 53°35' W 000°04'0 0.0
2017-Jan-10 20:33N 53°35' W 000°04'0 0.0
2017-Jan-10 19:31N 53°35' W 000°04'0 0.0
2017-Jan-10 18:31N 53°35' W 000°04'0 0.0
2017-Jan-10 16:32N 53°35' W 000°04'0 0.0
2017-Jan-10 15:22N 53°35' W 000°04'3 3.7
2017-Jan-10 14:33N 53°35' E 000°01'5310.4
2017-Jan-10 09:29N 53°13' E 001°21'1011.2
2017-Jan-10 08:33N 53°10' E 001°37'1110.9
2017-Jan-10 07:33N 53°06' E 001°54'8012.8
2017-Jan-10 01:18N 52°31' E 003°54'1012.9
2017-Jan-10 00:33N 52°31' E 004°10'1313.1
2017-Jan-09 23:34N 52°28' E 004°31'3 3.4
2017-Jan-09 22:33N 52°28' E 004°36'2 2.1
2017-Jan-09 21:33N 52°28' E 004°40'0 0.0
2017-Jan-09 20:33N 52°28' E 004°40'0 0.0
2017-Jan-09 19:34N 52°28' E 004°40'0 0.0
2017-Jan-09 18:33N 52°28' E 004°40'0 0.0
2017-Jan-09 17:33N 52°28' E 004°40'0 0.0
2017-Jan-09 16:34N 52°28' E 004°40'0 0.0
2017-Jan-09 15:33N 52°28' E 004°40'0 0.0
2017-Jan-09 14:34N 52°28' E 004°40'0 0.0
2017-Jan-09 13:34N 52°28' E 004°40'0 0.0
2017-Jan-09 12:33N 52°28' E 004°40'0 0.0
2017-Jan-09 11:34N 52°28' E 004°40'0 0.0
2017-Jan-09 10:34N 52°28' E 004°40'0 0.0
2017-Jan-09 09:33N 52°28' E 004°40'0 0.0
2017-Jan-09 08:34N 52°28' E 004°40'0 0.0
2017-Jan-09 07:34N 52°28' E 004°40'0 0.0
2017-Jan-09 06:34N 52°28' E 004°40'0 0.0
2017-Jan-09 05:33N 52°28' E 004°40'0 0.0
2017-Jan-09 04:34N 52°28' E 004°40'0 0.0
2017-Jan-09 03:34N 52°28' E 004°40'0 0.0
2017-Jan-09 02:34N 52°28' E 004°40'0 0.0
2017-Jan-09 01:33N 52°28' E 004°40'0 0.0
2017-Jan-09 00:33N 52°28' E 004°40'0 0.0
2017-Jan-08 23:34N 52°28' E 004°40'0 0.0
2017-Jan-08 22:33N 52°28' E 004°40'0 0.0
2017-Jan-08 21:34N 52°28' E 004°40'0 0.0
2017-Jan-08 20:33N 52°28' E 004°40'0 0.0
2017-Jan-08 19:33N 52°28' E 004°40'3 2.5
2017-Jan-08 18:34N 52°28' E 004°36'10 9.6
2017-Jan-08 17:34N 52°37' E 004°30'1515.4
2017-Jan-08 16:34N 52°52' E 004°29'1514.7
2017-Jan-08 15:33N 53°07' E 004°33'4413.3
2017-Jan-08 12:13N 53°50' E 004°48'1014.3
2017-Jan-08 11:33N 53°59' E 004°54'26314.6
2017-Jan-07 17:27N 58°22' E 005°16'1314.0
2017-Jan-07 16:33N 58°35' E 005°17'1413.9
2017-Jan-07 15:34N 58°49' E 005°18'1413.8
2017-Jan-07 14:34N 59°02' E 005°19'28 6.4
2017-Jan-07 10:08N 59°30' E 005°12'1214.3
2017-Jan-07 09:19N 59°41' E 005°23'1113.7
2017-Jan-07 08:29N 59°51' E 005°33'  

Dump ship's entire track history